sensor_id;sensor_type;location;lat;lon;timestamp;temperature;humidity
70368;DHT22;57789;53.868;10.728;2022-08-19T00:01:16;19.30;99.90
70368;DHT22;57789;53.868;10.728;2022-08-19T00:03:42;19.40;99.90
70368;DHT22;57789;53.868;10.728;2022-08-19T00:06:08;19.50;99.90
70368;DHT22;57789;53.868;10.728;2022-08-19T00:08:35;19.60;99.90
70368;DHT22;57789;53.868;10.728;2022-08-19T00:11:00;19.50;99.90
70368;DHT22;57789;53.868;10.728;2022-08-19T00:13:26;19.50;99.90
70368;DHT22;57789;53.868;10.728;2022-08-19T00:15:56;19.40;99.90
70368;DHT22;57789;53.868;10.728;2022-08-19T00:18:24;19.30;99.90
70368;DHT22;57789;53.868;10.728;2022-08-19T00:20:50;19.20;99.90
70368;DHT22;57789;53.868;10.728;2022-08-19T00:23:15;19.20;99.90
70368;DHT22;57789;53.868;10.728;2022-08-19T00:25:41;19.20;99.90
70368;DHT22;57789;53.868;10.728;2022-08-19T00:28:07;19.20;99.90
70368;DHT22;57789;53.868;10.728;2022-08-19T00:30:33;19.10;99.90
70368;DHT22;57789;53.868;10.728;2022-08-19T00:32:59;19.00;99.90
70368;DHT22;57789;53.868;10.728;2022-08-19T00:35:24;19.00;99.90
70368;DHT22;57789;53.868;10.728;2022-08-19T00:37:52;19.10;99.90
70368;DHT22;57789;53.868;10.728;2022-08-19T00:40:19;19.10;99.90
70368;DHT22;57789;53.868;10.728;2022-08-19T00:42:46;19.10;99.90
70368;DHT22;57789;53.868;10.728;2022-08-19T00:45:16;19.10;99.90
70368;DHT22;57789;53.868;10.728;2022-08-19T00:47:43;19.10;99.90
70368;DHT22;57789;53.868;10.728;2022-08-19T00:50:11;19.00;99.90
70368;DHT22;57789;53.868;10.728;2022-08-19T00:52:45;19.20;99.90
70368;DHT22;57789;53.868;10.728;2022-08-19T00:55:22;19.20;99.90
70368;DHT22;57789;53.868;10.728;2022-08-19T00:57:54;19.20;99.90
70368;DHT22;57789;53.868;10.728;2022-08-19T01:00:23;19.20;99.90
70368;DHT22;57789;53.868;10.728;2022-08-19T01:02:50;19.20;99.90
70368;DHT22;57789;53.868;10.728;2022-08-19T01:05:21;19.20;99.90
70368;DHT22;57789;53.868;10.728;2022-08-19T01:07:47;19.30;99.90
70368;DHT22;57789;53.868;10.728;2022-08-19T01:10:23;19.30;99.90
70368;DHT22;57789;53.868;10.728;2022-08-19T01:12:51;19.30;99.90
70368;DHT22;57789;53.868;10.728;2022-08-19T01:15:21;19.20;99.90
70368;DHT22;57789;53.868;10.728;2022-08-19T01:17:48;19.20;99.90
70368;DHT22;57789;53.868;10.728;2022-08-19T01:20:18;19.20;99.90
70368;DHT22;57789;53.868;10.728;2022-08-19T01:22:48;19.10;99.90
70368;DHT22;57789;53.868;10.728;2022-08-19T01:25:18;19.10;99.90
70368;DHT22;57789;53.868;10.728;2022-08-19T01:27:47;19.20;99.90
70368;DHT22;57789;53.868;10.728;2022-08-19T01:30:28;19.20;99.90
70368;DHT22;57789;53.868;10.728;2022-08-19T01:32:55;19.20;99.90
70368;DHT22;57789;53.868;10.728;2022-08-19T01:35:22;19.30;99.90
70368;DHT22;57789;53.868;10.728;2022-08-19T01:38:03;19.30;99.90
70368;DHT22;57789;53.868;10.728;2022-08-19T01:40:34;19.20;99.90
70368;DHT22;57789;53.868;10.728;2022-08-19T01:43:00;19.20;99.90
70368;DHT22;57789;53.868;10.728;2022-08-19T01:45:27;19.20;99.90
70368;DHT22;57789;53.868;10.728;2022-08-19T01:47:54;19.20;99.90
70368;DHT22;57789;53.868;10.728;2022-08-19T01:50:21;19.20;99.90
70368;DHT22;57789;53.868;10.728;2022-08-19T01:52:47;19.20;99.90
70368;DHT22;57789;53.868;10.728;2022-08-19T01:55:17;19.20;99.90
70368;DHT22;57789;53.868;10.728;2022-08-19T01:57:45;19.20;99.90
70368;DHT22;57789;53.868;10.728;2022-08-19T02:00:13;19.30;99.90
70368;DHT22;57789;53.868;10.728;2022-08-19T02:02:41;19.20;99.90
70368;DHT22;57789;53.868;10.728;2022-08-19T02:05:07;19.20;99.90
70368;DHT22;57789;53.868;10.728;2022-08-19T02:07:34;19.20;99.90
70368;DHT22;57789;53.868;10.728;2022-08-19T02:10:09;19.10;99.90
70368;DHT22;57789;53.868;10.728;2022-08-19T02:12:34;19.10;99.90
70368;DHT22;57789;53.868;10.728;2022-08-19T02:15:00;19.10;99.90
70368;DHT22;57789;53.868;10.728;2022-08-19T02:17:28;19.20;99.90
70368;DHT22;57789;53.868;10.728;2022-08-19T02:19:57;19.20;99.90
70368;DHT22;57789;53.868;10.728;2022-08-19T02:22:24;19.10;99.90
70368;DHT22;57789;53.868;10.728;2022-08-19T02:24:51;19.10;99.90
70368;DHT22;57789;53.868;10.728;2022-08-19T02:27:17;19.10;99.90
70368;DHT22;57789;53.868;10.728;2022-08-19T02:29:43;19.10;99.90
70368;DHT22;57789;53.868;10.728;2022-08-19T02:32:08;19.00;99.90
70368;DHT22;57789;53.868;10.728;2022-08-19T02:34:34;19.00;99.90
70368;DHT22;57789;53.868;10.728;2022-08-19T02:37:00;19.10;99.90
70368;DHT22;57789;53.868;10.728;2022-08-19T02:39:26;19.10;99.90
70368;DHT22;57789;53.868;10.728;2022-08-19T02:41:56;19.20;99.90
70368;DHT22;57789;53.868;10.728;2022-08-19T02:44:25;19.30;99.90
70368;DHT22;57789;53.868;10.728;2022-08-19T02:46:50;19.40;99.90
70368;DHT22;57789;53.868;10.728;2022-08-19T02:49:16;19.30;99.90
70368;DHT22;57789;53.868;10.728;2022-08-19T02:51:44;19.30;99.90
70368;DHT22;57789;53.868;10.728;2022-08-19T02:54:12;19.30;99.90
70368;DHT22;57789;53.868;10.728;2022-08-19T02:56:40;19.30;99.90
70368;DHT22;57789;53.868;10.728;2022-08-19T02:59:06;19.20;99.90
70368;DHT22;57789;53.868;10.728;2022-08-19T03:01:34;19.30;99.90
70368;DHT22;57789;53.868;10.728;2022-08-19T03:04:04;19.30;99.90
70368;DHT22;57789;53.868;10.728;2022-08-19T03:06:30;19.40;99.90
70368;DHT22;57789;53.868;10.728;2022-08-19T03:08:56;19.50;99.90
70368;DHT22;57789;53.868;10.728;2022-08-19T03:11:25;19.60;99.90
70368;DHT22;57789;53.868;10.728;2022-08-19T03:13:51;19.80;99.90
70368;DHT22;57789;53.868;10.728;2022-08-19T03:16:20;19.80;99.90
70368;DHT22;57789;53.868;10.728;2022-08-19T03:18:47;19.70;99.90
70368;DHT22;57789;53.868;10.728;2022-08-19T03:21:18;19.70;99.90
70368;DHT22;57789;53.868;10.728;2022-08-19T03:23:44;19.70;99.90
70368;DHT22;57789;53.868;10.728;2022-08-19T03:26:10;19.60;99.90
70368;DHT22;57789;53.868;10.728;2022-08-19T03:28:36;19.60;99.90
70368;DHT22;57789;53.868;10.728;2022-08-19T03:31:09;19.60;99.90
70368;DHT22;57789;53.868;10.728;2022-08-19T03:33:37;19.50;99.90
70368;DHT22;57789;53.868;10.728;2022-08-19T03:36:08;19.70;99.90
70368;DHT22;57789;53.868;10.728;2022-08-19T03:38:36;19.90;99.90
70368;DHT22;57789;53.868;10.728;2022-08-19T03:41:04;20.00;99.90
70368;DHT22;57789;53.868;10.728;2022-08-19T03:43:32;20.10;99.90
70368;DHT22;57789;53.868;10.728;2022-08-19T03:46:07;20.20;99.90
70368;DHT22;57789;53.868;10.728;2022-08-19T03:48:34;20.10;99.90
70368;DHT22;57789;53.868;10.728;2022-08-19T03:51:00;20.30;99.90
70368;DHT22;57789;53.868;10.728;2022-08-19T03:53:28;20.30;99.90
70368;DHT22;57789;53.868;10.728;2022-08-19T03:55:56;20.40;99.90
70368;DHT22;57789;53.868;10.728;2022-08-19T03:58:23;20.40;99.90
70368;DHT22;57789;53.868;10.728;2022-08-19T04:00:49;20.40;99.90
70368;DHT22;57789;53.868;10.728;2022-08-19T04:03:14;20.40;99.90
70368;DHT22;57789;53.868;10.728;2022-08-19T04:05:40;20.30;99.90
70368;DHT22;57789;53.868;10.728;2022-08-19T04:08:06;20.30;99.90
70368;DHT22;57789;53.868;10.728;2022-08-19T04:10:38;20.20;99.90
70368;DHT22;57789;53.868;10.728;2022-08-19T04:13:05;20.10;99.90
70368;DHT22;57789;53.868;10.728;2022-08-19T04:15:32;20.00;99.90
70368;DHT22;57789;53.868;10.728;2022-08-19T04:18:05;20.00;99.90
70368;DHT22;57789;53.868;10.728;2022-08-19T04:20:37;20.00;99.90
70368;DHT22;57789;53.868;10.728;2022-08-19T04:23:03;19.80;99.90
70368;DHT22;57789;53.868;10.728;2022-08-19T04:25:34;19.80;99.90
70368;DHT22;57789;53.868;10.728;2022-08-19T04:27:59;19.80;99.90
70368;DHT22;57789;53.868;10.728;2022-08-19T04:30:25;19.70;99.90
70368;DHT22;57789;53.868;10.728;2022-08-19T04:32:50;19.60;99.90
70368;DHT22;57789;53.868;10.728;2022-08-19T04:35:16;19.60;99.90
70368;DHT22;57789;53.868;10.728;2022-08-19T04:37:42;19.50;99.90
70368;DHT22;57789;53.868;10.728;2022-08-19T04:40:08;19.40;99.90
70368;DHT22;57789;53.868;10.728;2022-08-19T04:42:52;19.40;99.90
70368;DHT22;57789;53.868;10.728;2022-08-19T04:45:19;19.30;99.90
70368;DHT22;57789;53.868;10.728;2022-08-19T04:47:44;19.30;99.90
70368;DHT22;57789;53.868;10.728;2022-08-19T04:50:10;19.30;99.90
70368;DHT22;57789;53.868;10.728;2022-08-19T04:52:38;19.20;99.90
70368;DHT22;57789;53.868;10.728;2022-08-19T04:55:09;19.20;99.90
70368;DHT22;57789;53.868;10.728;2022-08-19T04:57:34;19.10;99.90
70368;DHT22;57789;53.868;10.728;2022-08-19T05:00:02;19.20;99.90
70368;DHT22;57789;53.868;10.728;2022-08-19T05:02:28;19.30;99.90
70368;DHT22;57789;53.868;10.728;2022-08-19T05:04:58;19.30;99.90
70368;DHT22;57789;53.868;10.728;2022-08-19T05:07:26;19.20;99.90
70368;DHT22;57789;53.868;10.728;2022-08-19T05:09:53;19.20;99.90
70368;DHT22;57789;53.868;10.728;2022-08-19T05:12:18;19.20;99.90
70368;DHT22;57789;53.868;10.728;2022-08-19T05:14:45;19.10;99.90
70368;DHT22;57789;53.868;10.728;2022-08-19T05:17:15;19.10;99.90
70368;DHT22;57789;53.868;10.728;2022-08-19T05:19:40;19.10;99.90
70368;DHT22;57789;53.868;10.728;2022-08-19T05:22:25;19.10;99.90
70368;DHT22;57789;53.868;10.728;2022-08-19T05:25:05;19.10;99.90
70368;DHT22;57789;53.868;10.728;2022-08-19T05:27:32;19.00;99.90
70368;DHT22;57789;53.868;10.728;2022-08-19T05:29:58;19.00;99.90
70368;DHT22;57789;53.868;10.728;2022-08-19T05:32:24;19.00;99.90
70368;DHT22;57789;53.868;10.728;2022-08-19T05:34:50;19.00;99.90
70368;DHT22;57789;53.868;10.728;2022-08-19T05:37:16;18.90;99.90
70368;DHT22;57789;53.868;10.728;2022-08-19T05:39:42;18.80;99.90
70368;DHT22;57789;53.868;10.728;2022-08-19T05:42:10;18.80;99.90
70368;DHT22;57789;53.868;10.728;2022-08-19T05:44:40;18.80;99.90
70368;DHT22;57789;53.868;10.728;2022-08-19T05:47:09;18.80;99.90
70368;DHT22;57789;53.868;10.728;2022-08-19T05:49:36;18.80;99.90
70368;DHT22;57789;53.868;10.728;2022-08-19T05:52:07;18.80;99.90
70368;DHT22;57789;53.868;10.728;2022-08-19T05:54:34;19.00;99.90
70368;DHT22;57789;53.868;10.728;2022-08-19T05:57:01;19.00;99.90
70368;DHT22;57789;53.868;10.728;2022-08-19T05:59:27;19.00;99.90
70368;DHT22;57789;53.868;10.728;2022-08-19T06:01:54;18.90;99.90
70368;DHT22;57789;53.868;10.728;2022-08-19T06:04:22;19.00;99.90
70368;DHT22;57789;53.868;10.728;2022-08-19T06:06:51;19.00;99.90
70368;DHT22;57789;53.868;10.728;2022-08-19T06:09:21;19.00;99.90
70368;DHT22;57789;53.868;10.728;2022-08-19T06:11:50;19.10;99.90
70368;DHT22;57789;53.868;10.728;2022-08-19T06:14:21;19.00;99.90
70368;DHT22;57789;53.868;10.728;2022-08-19T06:16:48;18.90;99.90
70368;DHT22;57789;53.868;10.728;2022-08-19T06:19:16;18.90;99.90
70368;DHT22;57789;53.868;10.728;2022-08-19T06:21:45;18.90;99.90
70368;DHT22;57789;53.868;10.728;2022-08-19T06:24:13;19.00;99.90
70368;DHT22;57789;53.868;10.728;2022-08-19T06:26:43;19.10;99.90
70368;DHT22;57789;53.868;10.728;2022-08-19T06:29:11;19.20;99.90
70368;DHT22;57789;53.868;10.728;2022-08-19T06:31:42;19.20;99.90
70368;DHT22;57789;53.868;10.728;2022-08-19T06:34:08;19.20;99.90
70368;DHT22;57789;53.868;10.728;2022-08-19T06:36:40;19.20;99.90
70368;DHT22;57789;53.868;10.728;2022-08-19T06:39:14;19.00;99.90
70368;DHT22;57789;53.868;10.728;2022-08-19T06:41:46;18.90;99.90
70368;DHT22;57789;53.868;10.728;2022-08-19T06:44:13;19.00;99.90
70368;DHT22;57789;53.868;10.728;2022-08-19T06:46:40;19.00;99.90
70368;DHT22;57789;53.868;10.728;2022-08-19T06:49:07;19.00;99.90
70368;DHT22;57789;53.868;10.728;2022-08-19T06:51:37;19.10;99.90
70368;DHT22;57789;53.868;10.728;2022-08-19T06:54:03;19.10;99.90
70368;DHT22;57789;53.868;10.728;2022-08-19T06:56:30;19.10;99.90
70368;DHT22;57789;53.868;10.728;2022-08-19T06:59:07;19.00;99.90
70368;DHT22;57789;53.868;10.728;2022-08-19T07:01:48;19.10;99.90
70368;DHT22;57789;53.868;10.728;2022-08-19T07:04:23;19.10;99.90
70368;DHT22;57789;53.868;10.728;2022-08-19T07:06:50;19.10;99.90
70368;DHT22;57789;53.868;10.728;2022-08-19T07:09:21;19.10;99.90
70368;DHT22;57789;53.868;10.728;2022-08-19T07:11:49;19.20;99.90
70368;DHT22;57789;53.868;10.728;2022-08-19T07:14:16;19.20;99.90
70368;DHT22;57789;53.868;10.728;2022-08-19T07:16:43;19.10;99.90
70368;DHT22;57789;53.868;10.728;2022-08-19T07:19:11;19.10;99.90
70368;DHT22;57789;53.868;10.728;2022-08-19T07:21:37;19.30;99.90
70368;DHT22;57789;53.868;10.728;2022-08-19T07:24:03;19.30;99.90
70368;DHT22;57789;53.868;10.728;2022-08-19T07:26:32;19.30;99.90
70368;DHT22;57789;53.868;10.728;2022-08-19T07:28:58;19.40;99.90
70368;DHT22;57789;53.868;10.728;2022-08-19T07:31:27;19.40;99.90
70368;DHT22;57789;53.868;10.728;2022-08-19T07:33:54;19.50;99.90
70368;DHT22;57789;53.868;10.728;2022-08-19T07:36:24;19.60;99.90
70368;DHT22;57789;53.868;10.728;2022-08-19T07:38:51;19.60;99.90
70368;DHT22;57789;53.868;10.728;2022-08-19T07:41:23;19.50;99.90
70368;DHT22;57789;53.868;10.728;2022-08-19T07:43:49;19.60;99.90
70368;DHT22;57789;53.868;10.728;2022-08-19T07:46:16;19.70;99.90
70368;DHT22;57789;53.868;10.728;2022-08-19T07:48:44;19.60;99.90
70368;DHT22;57789;53.868;10.728;2022-08-19T07:51:16;19.40;99.90
70368;DHT22;57789;53.868;10.728;2022-08-19T07:53:43;19.30;99.90
70368;DHT22;57789;53.868;10.728;2022-08-19T07:56:11;19.30;99.90
70368;DHT22;57789;53.868;10.728;2022-08-19T07:58:39;19.30;99.90
70368;DHT22;57789;53.868;10.728;2022-08-19T08:01:07;19.30;99.90
70368;DHT22;57789;53.868;10.728;2022-08-19T08:03:32;19.30;99.90
70368;DHT22;57789;53.868;10.728;2022-08-19T08:06:17;19.30;99.90
70368;DHT22;57789;53.868;10.728;2022-08-19T08:09:03;19.40;99.90
70368;DHT22;57789;53.868;10.728;2022-08-19T08:12:16;19.40;99.90
70368;DHT22;57789;53.868;10.728;2022-08-19T08:14:51;19.40;99.90
70368;DHT22;57789;53.868;10.728;2022-08-19T08:17:19;19.30;99.90
70368;DHT22;57789;53.868;10.728;2022-08-19T08:19:46;19.30;99.90
70368;DHT22;57789;53.868;10.728;2022-08-19T08:22:15;19.20;99.90
70368;DHT22;57789;53.868;10.728;2022-08-19T08:25:12;19.30;99.90
70368;DHT22;57789;53.868;10.728;2022-08-19T08:27:39;19.20;99.90
70368;DHT22;57789;53.868;10.728;2022-08-19T08:30:16;19.20;99.90
70368;DHT22;57789;53.868;10.728;2022-08-19T08:32:42;19.20;99.90
70368;DHT22;57789;53.868;10.728;2022-08-19T08:35:14;19.20;99.90
70368;DHT22;57789;53.868;10.728;2022-08-19T08:37:40;19.20;99.90
70368;DHT22;57789;53.868;10.728;2022-08-19T08:40:31;19.20;99.90
70368;DHT22;57789;53.868;10.728;2022-08-19T08:46:04;19.20;99.90
70368;DHT22;57789;53.868;10.728;2022-08-19T08:48:46;19.20;99.90
70368;DHT22;57789;53.868;10.728;2022-08-19T08:51:36;19.20;99.90
70368;DHT22;57789;53.868;10.728;2022-08-19T08:54:06;19.20;99.90
70368;DHT22;57789;53.868;10.728;2022-08-19T08:56:33;19.20;99.90
70368;DHT22;57789;53.868;10.728;2022-08-19T08:59:03;19.10;99.90
70368;DHT22;57789;53.868;10.728;2022-08-19T09:01:32;19.20;99.90
70368;DHT22;57789;53.868;10.728;2022-08-19T09:03:58;19.20;99.90
70368;DHT22;57789;53.868;10.728;2022-08-19T09:06:29;19.20;99.90
70368;DHT22;57789;53.868;10.728;2022-08-19T09:09:27;19.20;99.90
70368;DHT22;57789;53.868;10.728;2022-08-19T09:14:55;19.30;99.90
70368;DHT22;57789;53.868;10.728;2022-08-19T09:17:27;19.30;99.90
70368;DHT22;57789;53.868;10.728;2022-08-19T09:20:18;19.20;99.90
70368;DHT22;57789;53.868;10.728;2022-08-19T09:22:44;19.30;99.90
70368;DHT22;57789;53.868;10.728;2022-08-19T09:25:13;19.30;99.90
70368;DHT22;57789;53.868;10.728;2022-08-19T09:27:41;19.30;99.90
70368;DHT22;57789;53.868;10.728;2022-08-19T09:30:10;19.40;99.90
70368;DHT22;57789;53.868;10.728;2022-08-19T09:32:35;19.40;99.90
70368;DHT22;57789;53.868;10.728;2022-08-19T09:35:02;19.40;99.90
70368;DHT22;57789;53.868;10.728;2022-08-19T09:37:28;19.40;99.90
70368;DHT22;57789;53.868;10.728;2022-08-19T09:39:53;19.50;99.90
70368;DHT22;57789;53.868;10.728;2022-08-19T09:42:20;19.50;99.90
70368;DHT22;57789;53.868;10.728;2022-08-19T09:44:46;19.60;99.90
70368;DHT22;57789;53.868;10.728;2022-08-19T09:47:13;19.60;99.90
70368;DHT22;57789;53.868;10.728;2022-08-19T09:49:39;19.70;99.90
70368;DHT22;57789;53.868;10.728;2022-08-19T09:52:09;19.80;99.90
70368;DHT22;57789;53.868;10.728;2022-08-19T09:54:36;19.80;99.90
70368;DHT22;57789;53.868;10.728;2022-08-19T09:57:02;19.80;99.90
70368;DHT22;57789;53.868;10.728;2022-08-19T09:59:28;19.80;99.90
70368;DHT22;57789;53.868;10.728;2022-08-19T10:01:54;19.80;99.90
70368;DHT22;57789;53.868;10.728;2022-08-19T10:04:21;19.80;99.90
70368;DHT22;57789;53.868;10.728;2022-08-19T10:06:48;19.80;99.90
70368;DHT22;57789;53.868;10.728;2022-08-19T10:09:16;19.90;99.90
70368;DHT22;57789;53.868;10.728;2022-08-19T10:11:44;19.90;99.90
70368;DHT22;57789;53.868;10.728;2022-08-19T10:14:15;19.90;99.90
70368;DHT22;57789;53.868;10.728;2022-08-19T10:16:42;19.90;99.90
70368;DHT22;57789;53.868;10.728;2022-08-19T10:19:08;19.90;99.90
70368;DHT22;57789;53.868;10.728;2022-08-19T10:21:35;19.90;99.90
70368;DHT22;57789;53.868;10.728;2022-08-19T10:24:03;20.00;99.90
70368;DHT22;57789;53.868;10.728;2022-08-19T10:26:34;20.00;99.90
70368;DHT22;57789;53.868;10.728;2022-08-19T10:29:01;20.00;99.90
70368;DHT22;57789;53.868;10.728;2022-08-19T10:31:31;19.90;99.90
70368;DHT22;57789;53.868;10.728;2022-08-19T10:33:57;19.90;99.90
70368;DHT22;57789;53.868;10.728;2022-08-19T10:36:26;19.90;99.90
70368;DHT22;57789;53.868;10.728;2022-08-19T10:38:53;20.00;99.90
70368;DHT22;57789;53.868;10.728;2022-08-19T10:41:25;20.00;99.90
70368;DHT22;57789;53.868;10.728;2022-08-19T10:43:56;20.00;99.90
70368;DHT22;57789;53.868;10.728;2022-08-19T10:46:25;20.00;99.90
70368;DHT22;57789;53.868;10.728;2022-08-19T10:48:51;20.00;99.90
70368;DHT22;57789;53.868;10.728;2022-08-19T10:51:17;20.00;99.90
70368;DHT22;57789;53.868;10.728;2022-08-19T10:54:03;20.00;99.90
70368;DHT22;57789;53.868;10.728;2022-08-19T10:56:29;20.00;99.90
70368;DHT22;57789;53.868;10.728;2022-08-19T10:59:15;20.10;99.90
70368;DHT22;57789;53.868;10.728;2022-08-19T11:01:42;20.10;99.90
70368;DHT22;57789;53.868;10.728;2022-08-19T11:04:09;20.20;99.90
70368;DHT22;57789;53.868;10.728;2022-08-19T11:06:37;20.10;99.90
70368;DHT22;57789;53.868;10.728;2022-08-19T11:09:04;20.00;99.90
70368;DHT22;57789;53.868;10.728;2022-08-19T11:11:31;19.80;99.90
70368;DHT22;57789;53.868;10.728;2022-08-19T11:13:58;19.80;99.90
70368;DHT22;57789;53.868;10.728;2022-08-19T11:16:25;19.70;99.90
70368;DHT22;57789;53.868;10.728;2022-08-19T11:18:57;19.70;99.90
70368;DHT22;57789;53.868;10.728;2022-08-19T11:21:28;19.60;99.90
70368;DHT22;57789;53.868;10.728;2022-08-19T11:23:57;19.60;99.90
70368;DHT22;57789;53.868;10.728;2022-08-19T11:26:24;19.70;99.90
70368;DHT22;57789;53.868;10.728;2022-08-19T11:28:50;19.70;99.90
70368;DHT22;57789;53.868;10.728;2022-08-19T11:31:31;19.80;99.90
70368;DHT22;57789;53.868;10.728;2022-08-19T11:33:58;19.80;99.90
70368;DHT22;57789;53.868;10.728;2022-08-19T11:36:25;19.80;99.90
70368;DHT22;57789;53.868;10.728;2022-08-19T11:38:52;19.80;99.90
70368;DHT22;57789;53.868;10.728;2022-08-19T11:41:20;19.70;99.90
70368;DHT22;57789;53.868;10.728;2022-08-19T11:43:46;19.70;99.90
70368;DHT22;57789;53.868;10.728;2022-08-19T11:46:14;19.70;99.90
70368;DHT22;57789;53.868;10.728;2022-08-19T11:48:40;19.80;99.90
70368;DHT22;57789;53.868;10.728;2022-08-19T11:51:10;19.70;99.90
70368;DHT22;57789;53.868;10.728;2022-08-19T11:53:37;19.70;99.90
70368;DHT22;57789;53.868;10.728;2022-08-19T11:56:05;19.70;99.90
70368;DHT22;57789;53.868;10.728;2022-08-19T11:58:31;19.70;99.90
70368;DHT22;57789;53.868;10.728;2022-08-19T12:00:57;19.70;99.90
70368;DHT22;57789;53.868;10.728;2022-08-19T12:03:24;19.70;99.90
70368;DHT22;57789;53.868;10.728;2022-08-19T12:05:50;19.70;99.90
70368;DHT22;57789;53.868;10.728;2022-08-19T12:08:16;19.70;99.90
70368;DHT22;57789;53.868;10.728;2022-08-19T12:10:42;19.80;99.90
70368;DHT22;57789;53.868;10.728;2022-08-19T12:13:09;19.80;99.90
70368;DHT22;57789;53.868;10.728;2022-08-19T12:15:36;19.90;99.90
70368;DHT22;57789;53.868;10.728;2022-08-19T12:18:03;19.90;99.90
70368;DHT22;57789;53.868;10.728;2022-08-19T12:20:28;20.00;99.90
70368;DHT22;57789;53.868;10.728;2022-08-19T12:22:54;20.00;99.90
70368;DHT22;57789;53.868;10.728;2022-08-19T12:25:20;20.10;99.90
70368;DHT22;57789;53.868;10.728;2022-08-19T12:27:46;20.10;99.90
